createdAt,value
2022-08-12T00:00:00.802Z,21.29
2022-08-12T00:02:46.447Z,21.23
2022-08-12T00:05:33.650Z,20.83
2022-08-12T00:08:28.659Z,20.93
2022-08-12T00:11:21.360Z,20.82
2022-08-12T00:14:06.672Z,20.76
2022-08-12T00:16:54.048Z,20.85
2022-08-12T00:19:39.354Z,20.83
2022-08-12T00:22:26.171Z,20.87
2022-08-12T00:25:17.007Z,20.94
2022-08-12T00:28:02.699Z,20.90
2022-08-12T00:30:48.348Z,20.77
2022-08-12T00:33:38.594Z,20.73
2022-08-12T00:36:43.643Z,20.63
2022-08-12T00:39:30.899Z,20.51
2022-08-12T00:42:11.086Z,20.49
2022-08-12T00:44:43.237Z,20.71
2022-08-12T00:47:24.657Z,20.75
2022-08-12T00:49:55.741Z,20.79
2022-08-12T00:52:25.265Z,20.79
2022-08-12T00:54:57.046Z,20.57
2022-08-12T00:57:27.322Z,20.43
2022-08-12T00:59:57.887Z,20.74
2022-08-12T01:02:27.759Z,20.67
2022-08-12T01:05:16.202Z,20.63
2022-08-12T01:08:03.570Z,20.64
2022-08-12T01:10:51.440Z,20.63
2022-08-12T01:13:20.701Z,20.71
2022-08-12T01:15:51.393Z,20.77
2022-08-12T01:18:21.292Z,20.61
2022-08-12T01:21:00.514Z,20.71
2022-08-12T01:23:52.148Z,20.63
2022-08-12T01:26:24.404Z,20.64
2022-08-12T01:28:58.667Z,20.67
2022-08-12T01:31:29.294Z,20.70
2022-08-12T01:34:04.548Z,20.73
2022-08-12T01:36:40.746Z,20.73
2022-08-12T01:39:10.128Z,20.61
2022-08-12T01:41:44.893Z,19.69
2022-08-12T01:44:22.955Z,20.63
2022-08-12T01:47:05.780Z,20.67
2022-08-12T01:49:51.653Z,20.60
2022-08-12T01:52:38.584Z,20.55
2022-08-12T01:55:08.184Z,20.64
2022-08-12T01:57:59.209Z,20.63
2022-08-12T02:00:44.937Z,20.56
2022-08-12T02:04:01.775Z,20.66
2022-08-12T02:06:56.123Z,20.79
2022-08-12T02:10:00.207Z,20.83
2022-08-12T02:12:48.462Z,20.82
2022-08-12T02:15:28.683Z,21.01
2022-08-12T02:18:12.717Z,21.13
2022-08-12T02:20:52.762Z,20.85
2022-08-12T02:23:27.049Z,20.92
2022-08-12T02:25:59.458Z,20.82
2022-08-12T02:28:29.165Z,20.61
2022-08-12T02:31:02.873Z,20.46
2022-08-12T02:33:31.629Z,20.70
2022-08-12T02:36:01.922Z,20.22
2022-08-12T02:38:32.297Z,20.53
2022-08-12T02:41:04.865Z,20.48
2022-08-12T02:43:38.398Z,20.70
2022-08-12T02:46:13.755Z,20.02
2022-08-12T02:48:47.225Z,20.68
2022-08-12T02:51:19.436Z,20.71
2022-08-12T02:54:03.316Z,20.84
2022-08-12T02:56:37.651Z,20.86
2022-08-12T02:59:12.281Z,20.92
2022-08-12T03:01:47.891Z,20.99
2022-08-12T03:04:24.465Z,20.97
2022-08-12T03:07:02.153Z,21.09
2022-08-12T03:09:53.525Z,19.96
2022-08-12T03:12:25.297Z,21.26
2022-08-12T03:14:56.225Z,20.13
2022-08-12T03:17:30.461Z,20.80
2022-08-12T03:20:10.104Z,21.13
2022-08-12T03:22:40.824Z,21.26
2022-08-12T03:25:17.225Z,20.24
2022-08-12T03:27:49.840Z,20.91
2022-08-12T03:30:20.735Z,20.64
2022-08-12T03:32:50.787Z,20.45
2022-08-12T03:35:40.894Z,20.27
2022-08-12T03:38:16.265Z,20.07
2022-08-12T03:41:15.365Z,19.97
2022-08-12T03:44:10.674Z,19.89
2022-08-12T03:47:00.714Z,19.51
2022-08-12T03:49:46.390Z,19.48
2022-08-12T03:52:31.823Z,19.56
2022-08-12T03:55:17.510Z,19.40
2022-08-12T03:58:03.218Z,19.33
2022-08-12T04:00:31.946Z,19.32
2022-08-12T04:03:01.970Z,19.30
2022-08-12T04:05:54.694Z,18.77
2022-08-12T04:08:22.552Z,18.92
2022-08-12T04:11:08.217Z,19.07
2022-08-12T04:13:36.147Z,19.12
2022-08-12T04:16:07.940Z,19.09
2022-08-12T04:18:38.804Z,19.15
2022-08-12T04:21:10.373Z,19.04
2022-08-12T04:23:47.677Z,19.10
2022-08-12T04:26:16.640Z,18.99
2022-08-12T04:28:44.892Z,19.05
2022-08-12T04:31:14.234Z,19.12
2022-08-12T04:33:44.148Z,19.15
2022-08-12T04:36:12.168Z,19.02
2022-08-12T04:38:40.116Z,18.53
2022-08-12T04:41:10.888Z,18.69
2022-08-12T04:43:54.489Z,18.95
2022-08-12T04:46:33.526Z,18.86
2022-08-12T04:49:05.156Z,18.86
2022-08-12T04:51:34.190Z,18.80
2022-08-12T04:54:03.067Z,18.86
2022-08-12T04:56:35.397Z,18.38
2022-08-12T04:59:04.987Z,18.84
2022-08-12T05:01:32.908Z,18.46
2022-08-12T05:04:02.874Z,18.74
2022-08-12T05:06:32.781Z,18.79
2022-08-12T05:09:01.412Z,18.69
2022-08-12T05:11:29.439Z,18.73
2022-08-12T05:14:00.163Z,18.80
2022-08-12T05:16:32.413Z,18.30
2022-08-12T05:19:02.437Z,19.09
2022-08-12T05:21:32.021Z,19.18
2022-08-12T05:24:00.101Z,19.17
2022-08-12T05:26:29.452Z,19.26
2022-08-12T05:28:57.390Z,19.45
2022-08-12T05:31:47.486Z,19.49
2022-08-12T05:34:15.638Z,19.50
2022-08-12T05:36:45.096Z,19.47
2022-08-12T05:39:13.269Z,19.42
2022-08-12T05:41:41.836Z,19.39
2022-08-12T05:44:12.714Z,19.44
2022-08-12T05:46:41.229Z,19.48
2022-08-12T05:49:10.035Z,19.54
2022-08-12T05:51:40.762Z,19.55
2022-08-12T05:54:12.237Z,19.34
2022-08-12T05:56:41.633Z,19.44
2022-08-12T05:59:12.141Z,19.65
2022-08-12T06:02:11.407Z,19.78
2022-08-12T06:04:29.745Z,19.84
2022-08-12T06:06:57.880Z,19.68
2022-08-12T06:09:28.706Z,20.14
2022-08-12T06:12:06.248Z,20.14
2022-08-12T06:14:37.765Z,20.23
2022-08-12T06:17:08.648Z,19.97
2022-08-12T06:20:26.632Z,20.12
2022-08-12T06:22:24.535Z,20.24
2022-08-12T06:24:53.983Z,20.23
2022-08-12T06:27:22.073Z,19.98
2022-08-12T06:30:10.253Z,20.38
2022-08-12T06:32:42.731Z,20.57
2022-08-12T06:35:23.027Z,20.60
2022-08-12T06:37:57.632Z,20.74
2022-08-12T06:40:46.226Z,20.80
2022-08-12T06:43:14.301Z,20.86
2022-08-12T06:45:47.349Z,21.06
2022-08-12T06:48:16.502Z,21.02
2022-08-12T06:50:46.087Z,21.35
2022-08-12T06:53:14.087Z,21.47
2022-08-12T06:55:57.782Z,21.66
2022-08-12T06:58:27.415Z,22.01
2022-08-12T07:00:56.061Z,22.23
2022-08-12T07:03:28.012Z,22.28
2022-08-12T07:05:58.324Z,22.07
2022-08-12T07:08:29.070Z,22.31
2022-08-12T07:11:01.261Z,22.33
2022-08-12T07:13:30.926Z,22.30
2022-08-12T07:15:59.639Z,22.37
2022-08-12T07:18:32.904Z,22.20
2022-08-12T07:21:04.068Z,22.55
2022-08-12T07:23:33.509Z,22.72
2022-08-12T07:26:05.529Z,23.17
2022-08-12T07:28:37.022Z,22.68
2022-08-12T07:31:07.963Z,22.90
2022-08-12T07:33:39.450Z,22.77
2022-08-12T07:36:12.028Z,22.94
2022-08-12T07:38:43.785Z,23.35
2022-08-12T07:41:17.362Z,25.61
2022-08-12T07:43:47.933Z,25.62
2022-08-12T07:46:19.925Z,26.24
2022-08-12T07:48:49.991Z,26.10
2022-08-12T07:51:25.414Z,26.68
2022-08-12T07:54:03.262Z,25.94
2022-08-12T07:56:33.068Z,26.33
2022-08-12T07:59:01.481Z,26.03
2022-08-12T08:01:29.940Z,26.03
2022-08-12T08:04:19.054Z,25.32
2022-08-12T08:06:49.109Z,25.35
2022-08-12T08:09:21.249Z,25.54
2022-08-12T08:12:19.129Z,25.44
2022-08-12T08:14:50.138Z,27.24
2022-08-12T08:17:18.591Z,27.61
2022-08-12T08:20:03.606Z,27.45
2022-08-12T08:22:40.756Z,27.02
2022-08-12T08:25:35.683Z,26.76
2022-08-12T08:28:01.555Z,26.60
2022-08-12T08:30:30.690Z,27.78
2022-08-12T08:32:58.637Z,27.41
2022-08-12T08:35:31.218Z,26.98
2022-08-12T08:38:19.831Z,26.28
2022-08-12T08:42:15.531Z,26.56
2022-08-12T08:44:11.058Z,26.75
2022-08-12T08:46:39.853Z,26.09
2022-08-12T08:49:08.699Z,26.04
2022-08-12T08:51:37.357Z,25.74
2022-08-12T08:54:06.886Z,26.08
2022-08-12T08:56:36.280Z,28.44
2022-08-12T08:59:04.798Z,29.33
2022-08-12T09:01:37.194Z,29.56
2022-08-12T09:05:08.301Z,28.66
2022-08-12T09:06:56.701Z,27.12
2022-08-12T09:09:25.006Z,26.81
2022-08-12T09:12:54.304Z,26.37
2022-08-12T09:17:59.157Z,28.88
2022-08-12T09:20:30.579Z,28.80
2022-08-12T09:22:59.393Z,28.03
2022-08-12T09:25:33.577Z,27.79
2022-08-12T09:28:05.021Z,27.32
2022-08-12T09:30:42.281Z,28.53
2022-08-12T09:34:24.769Z,29.83
2022-08-12T09:36:04.984Z,29.67
2022-08-12T09:38:35.474Z,29.88
2022-08-12T09:42:33.503Z,29.39
2022-08-12T09:44:37.927Z,28.53
2022-08-12T09:47:03.079Z,27.33
2022-08-12T09:49:42.523Z,26.99
2022-08-12T09:52:15.614Z,26.88
2022-08-12T09:54:43.610Z,26.85
2022-08-12T09:58:44.655Z,27.10
2022-08-12T10:00:17.836Z,27.14
2022-08-12T10:03:01.331Z,27.66
2022-08-12T10:06:26.817Z,28.21
2022-08-12T10:08:22.494Z,26.54
2022-08-12T10:11:20.407Z,27.55
2022-08-12T10:13:51.418Z,27.48
2022-08-12T10:16:22.403Z,27.48
2022-08-12T10:18:54.646Z,28.71
2022-08-12T10:21:36.372Z,30.17
2022-08-12T10:24:07.257Z,29.26
2022-08-12T10:26:54.353Z,28.39
2022-08-12T10:30:37.781Z,28.24
2022-08-12T10:32:43.213Z,28.48
2022-08-12T10:35:15.777Z,28.28
2022-08-12T10:38:34.151Z,28.16
2022-08-12T10:40:55.403Z,27.73
2022-08-12T10:43:54.096Z,27.97
2022-08-12T10:46:30.576Z,28.37
2022-08-12T10:49:06.749Z,27.40
2022-08-12T10:52:31.157Z,28.33
2022-08-12T10:54:43.659Z,28.44
2022-08-12T10:58:12.515Z,28.02
2022-08-12T11:00:35.240Z,27.76
2022-08-12T11:04:18.688Z,27.53
2022-08-12T11:07:09.187Z,27.74
2022-08-12T11:08:43.626Z,27.84
2022-08-12T11:12:07.692Z,27.67
2022-08-12T11:14:06.305Z,27.67
2022-08-12T11:17:06.504Z,27.32
2022-08-12T11:19:46.372Z,27.40
2022-08-12T11:22:14.529Z,27.47
2022-08-12T11:24:42.533Z,27.16
2022-08-12T11:27:21.365Z,27.36
2022-08-12T11:30:06.426Z,27.24
2022-08-12T11:32:38.370Z,27.28
2022-08-12T11:35:08.331Z,27.22
2022-08-12T11:37:59.355Z,25.54
2022-08-12T11:40:26.626Z,27.42
2022-08-12T11:43:17.122Z,27.44
2022-08-12T11:45:47.207Z,27.30
2022-08-12T11:48:15.741Z,27.45
2022-08-12T11:50:44.540Z,27.57
2022-08-12T11:53:58.556Z,27.59
2022-08-12T11:56:00.641Z,27.45
2022-08-12T11:59:59.653Z,27.83
2022-08-12T12:02:03.066Z,27.82
2022-08-12T12:04:06.349Z,27.84
2022-08-12T12:06:38.382Z,28.13
2022-08-12T12:09:08.106Z,28.13
2022-08-12T12:11:48.745Z,27.59
2022-08-12T12:14:18.977Z,27.61
2022-08-12T12:17:09.201Z,27.76
2022-08-12T12:19:39.673Z,27.50
2022-08-12T12:22:15.700Z,26.91
2022-08-12T12:24:51.448Z,27.84
2022-08-12T12:28:03.876Z,28.21
2022-08-12T12:30:18.829Z,27.87
2022-08-12T12:32:58.310Z,27.57
2022-08-12T12:36:06.420Z,27.47
2022-08-12T12:38:16.233Z,27.17
2022-08-12T12:40:50.254Z,27.74
2022-08-12T12:43:29.043Z,28.24
2022-08-12T12:46:08.944Z,28.35
2022-08-12T12:48:38.830Z,28.35
2022-08-12T12:51:48.987Z,28.43
2022-08-12T12:54:10.013Z,28.22
2022-08-12T12:56:42.527Z,27.42
2022-08-12T12:59:54.394Z,27.99
2022-08-12T13:02:08.060Z,27.83
2022-08-12T13:04:37.650Z,28.10
2022-08-12T13:07:06.776Z,28.73
2022-08-12T13:09:35.908Z,28.51
2022-08-12T13:12:08.099Z,27.65
2022-08-12T13:14:39.894Z,27.77
2022-08-12T13:17:11.390Z,26.85
2022-08-12T13:19:48.254Z,26.69
2022-08-12T13:22:20.005Z,26.57
2022-08-12T13:24:54.785Z,27.04
2022-08-12T13:27:35.164Z,26.96
2022-08-12T13:30:07.002Z,26.84
2022-08-12T13:32:41.822Z,26.56
2022-08-12T13:35:20.420Z,26.42
2022-08-12T13:38:02.682Z,25.93
2022-08-12T13:40:33.700Z,26.75
2022-08-12T13:43:06.892Z,26.38
2022-08-12T13:45:36.851Z,26.32
2022-08-12T13:48:07.576Z,25.93
2022-08-12T13:50:37.498Z,25.83
2022-08-12T13:53:24.420Z,25.48
2022-08-12T13:55:59.731Z,26.07
2022-08-12T13:58:33.104Z,25.60
2022-08-12T14:01:06.362Z,26.06
2022-08-12T14:03:50.685Z,26.17
2022-08-12T14:06:26.014Z,25.51
2022-08-12T14:08:59.766Z,25.85
2022-08-12T14:11:47.930Z,26.15
2022-08-12T14:14:26.295Z,24.83
2022-08-12T14:16:55.247Z,25.45
2022-08-12T14:19:31.742Z,25.25
2022-08-12T14:22:04.947Z,25.05
2022-08-12T14:24:40.987Z,25.00
2022-08-12T14:27:10.930Z,25.19
2022-08-12T14:30:05.815Z,25.16
2022-08-12T14:32:35.327Z,24.98
2022-08-12T14:35:08.990Z,25.17
2022-08-12T14:37:54.971Z,24.37
2022-08-12T14:40:28.469Z,25.32
2022-08-12T14:42:58.037Z,23.78
2022-08-12T14:45:44.549Z,24.29
2022-08-12T14:48:15.363Z,25.12
2022-08-12T14:51:02.649Z,25.30
2022-08-12T14:59:57.877Z,25.61
2022-08-12T15:02:20.893Z,25.62
2022-08-12T15:04:58.716Z,25.15
2022-08-12T15:07:34.454Z,25.71
2022-08-12T15:10:13.408Z,25.65
2022-08-12T15:12:41.733Z,25.68
2022-08-12T15:15:11.268Z,25.52
2022-08-12T15:17:40.335Z,25.35
2022-08-12T15:20:28.661Z,25.18
2022-08-12T15:22:59.989Z,25.86
2022-08-12T15:25:28.645Z,25.71
2022-08-12T15:28:03.919Z,25.87
2022-08-12T15:30:37.215Z,25.62
2022-08-12T15:33:12.865Z,25.80
2022-08-12T15:35:52.287Z,25.88
2022-08-12T15:38:25.035Z,25.60
2022-08-12T15:40:55.134Z,26.19
2022-08-12T15:44:16.632Z,25.98
2022-08-12T15:46:15.336Z,25.89
2022-08-12T15:48:47.114Z,25.79
2022-08-12T15:51:58.567Z,25.54
2022-08-12T15:54:34.089Z,25.71
2022-08-12T15:57:08.026Z,24.99
2022-08-12T16:00:03.950Z,25.57
2022-08-12T16:02:29.300Z,25.74
2022-08-12T16:04:58.371Z,25.68
2022-08-12T16:07:39.509Z,25.48
2022-08-12T16:10:10.908Z,25.46
2022-08-12T16:12:43.256Z,25.63
2022-08-12T16:15:13.254Z,25.31
2022-08-12T16:18:18.433Z,24.58
2022-08-12T16:20:33.708Z,25.48
2022-08-12T16:23:21.442Z,25.44
2022-08-12T16:26:05.412Z,25.46
2022-08-12T16:28:34.656Z,25.40
2022-08-12T16:31:03.415Z,25.38
2022-08-12T16:33:59.207Z,24.80
2022-08-12T16:36:25.500Z,25.32
2022-08-12T16:38:53.675Z,25.29
2022-08-12T16:41:23.737Z,25.28
2022-08-12T16:43:53.448Z,24.99
2022-08-12T16:46:31.469Z,24.38
2022-08-12T16:49:04.159Z,24.30
2022-08-12T16:51:46.949Z,24.75
2022-08-12T16:54:17.242Z,25.16
2022-08-12T16:56:51.137Z,25.09
2022-08-12T16:59:53.575Z,25.06
2022-08-12T17:02:31.976Z,24.95
2022-08-12T17:05:04.705Z,24.59
2022-08-12T17:07:36.472Z,24.80
2022-08-12T17:10:07.119Z,24.75
2022-08-12T17:12:39.322Z,24.92
2022-08-12T17:15:50.707Z,24.66
2022-08-12T17:18:39.238Z,24.35
2022-08-12T17:20:48.422Z,24.70
2022-08-12T17:23:18.054Z,24.67
2022-08-12T17:25:50.291Z,24.43
2022-08-12T17:28:21.249Z,24.58
2022-08-12T17:31:00.092Z,24.56
2022-08-12T17:33:33.384Z,24.52
2022-08-12T17:36:05.775Z,24.49
2022-08-12T17:38:35.039Z,24.44
2022-08-12T17:41:08.275Z,24.00
2022-08-12T17:43:58.520Z,24.33
2022-08-12T17:46:33.746Z,24.31
2022-08-12T17:49:18.813Z,24.27
2022-08-12T17:52:02.913Z,22.36
2022-08-12T17:54:31.627Z,23.76
2022-08-12T17:57:02.512Z,24.10
2022-08-12T17:59:48.668Z,23.88
2022-08-12T18:02:25.646Z,23.97
2022-08-12T18:05:05.212Z,23.89
2022-08-12T18:07:39.539Z,23.77
2022-08-12T18:10:08.463Z,23.24
2022-08-12T18:12:42.743Z,22.74
2022-08-12T18:15:47.722Z,23.56
2022-08-12T18:18:16.625Z,23.46
2022-08-12T18:20:46.892Z,23.25
2022-08-12T18:23:14.930Z,23.48
2022-08-12T18:26:14.791Z,23.25
2022-08-12T18:28:48.341Z,23.37
2022-08-12T18:31:22.950Z,23.49
2022-08-12T18:33:53.279Z,23.50
2022-08-12T18:36:22.727Z,23.54
2022-08-12T18:38:56.076Z,23.09
2022-08-12T18:41:35.132Z,22.69
2022-08-12T18:44:09.260Z,22.99
2022-08-12T18:47:01.502Z,23.34
2022-08-12T18:49:38.838Z,23.42
2022-08-12T18:52:11.540Z,23.41
2022-08-12T18:54:49.070Z,23.34
2022-08-12T18:58:05.690Z,23.03
2022-08-12T19:00:21.315Z,22.99
2022-08-12T19:02:53.715Z,23.32
2022-08-12T19:05:54.362Z,23.22
2022-08-12T19:08:14.204Z,22.44
2022-08-12T19:10:50.378Z,23.04
2022-08-12T19:13:38.037Z,23.08
2022-08-12T19:16:10.764Z,23.15
2022-08-12T19:18:44.731Z,23.11
2022-08-12T19:21:16.253Z,23.01
2022-08-12T19:24:05.522Z,22.82
2022-08-12T19:26:34.469Z,22.48
2022-08-12T19:29:05.053Z,22.73
2022-08-12T19:31:57.473Z,22.70
2022-08-12T19:37:27.147Z,22.64
2022-08-12T19:40:20.458Z,22.23
2022-08-12T19:43:01.618Z,22.47
2022-08-12T19:45:42.406Z,21.66
2022-08-12T19:48:18.005Z,22.35
2022-08-12T19:50:50.183Z,22.29
2022-08-12T19:53:22.745Z,22.18
2022-08-12T19:55:53.860Z,22.09
2022-08-12T19:58:23.729Z,21.02
2022-08-12T20:00:54.374Z,21.95
2022-08-12T20:03:39.781Z,21.84
2022-08-12T20:06:15.839Z,21.75
2022-08-12T20:08:48.693Z,21.19
2022-08-12T20:12:09.715Z,21.71
2022-08-12T20:14:14.093Z,21.78
2022-08-12T20:16:51.646Z,21.82
2022-08-12T20:19:23.367Z,21.33
2022-08-12T20:21:54.940Z,21.79
2022-08-12T20:24:23.953Z,21.73
2022-08-12T20:27:00.235Z,21.73
2022-08-12T20:29:35.711Z,21.58
2022-08-12T20:32:06.028Z,21.15
2022-08-12T20:34:39.031Z,21.00
2022-08-12T20:37:10.285Z,21.63
2022-08-12T20:39:52.827Z,21.24
2022-08-12T20:42:24.421Z,21.63
2022-08-12T20:44:59.630Z,21.57
2022-08-12T20:47:46.838Z,21.53
2022-08-12T20:50:15.988Z,21.50
2022-08-12T20:52:49.390Z,21.43
2022-08-12T20:55:19.465Z,21.34
2022-08-12T20:58:02.733Z,21.43
2022-08-12T21:00:33.269Z,21.08
2022-08-12T21:03:21.184Z,20.93
2022-08-12T21:06:13.557Z,20.80
2022-08-12T21:08:43.965Z,21.39
2022-08-12T21:11:12.011Z,20.52
2022-08-12T21:13:41.795Z,21.63
2022-08-12T21:16:10.538Z,21.60
2022-08-12T21:18:39.512Z,21.59
2022-08-12T21:21:24.086Z,21.62
2022-08-12T21:23:59.011Z,21.69
2022-08-12T21:26:28.092Z,21.81
2022-08-12T21:29:01.165Z,21.81
2022-08-12T21:32:39.826Z,21.61
2022-08-12T21:34:25.974Z,21.64
2022-08-12T21:37:01.793Z,21.93
2022-08-12T21:39:52.359Z,21.67
2022-08-12T21:42:20.985Z,21.80
2022-08-12T21:45:45.888Z,21.85
2022-08-12T21:47:43.784Z,21.70
2022-08-12T21:50:15.395Z,21.59
2022-08-12T21:52:43.394Z,21.59
2022-08-12T21:55:20.362Z,21.62
2022-08-12T21:57:53.788Z,21.65
2022-08-12T22:00:32.584Z,20.88
2022-08-12T22:04:01.585Z,21.24
2022-08-12T22:06:31.768Z,20.94
2022-08-12T22:09:15.285Z,21.48
2022-08-12T22:11:56.721Z,21.48
2022-08-12T22:14:28.125Z,21.25
2022-08-12T22:16:58.622Z,21.47
2022-08-12T22:19:28.621Z,21.05
2022-08-12T22:21:58.432Z,21.24
2022-08-12T22:24:30.348Z,21.32
2022-08-12T22:27:08.020Z,21.29
2022-08-12T22:30:07.618Z,21.22
2022-08-12T22:32:41.913Z,20.95
2022-08-12T22:35:29.201Z,21.12
2022-08-12T22:37:58.850Z,20.82
2022-08-12T22:40:26.734Z,21.06
2022-08-12T22:43:14.581Z,21.02
2022-08-12T22:46:01.223Z,21.06
2022-08-12T22:48:29.167Z,21.03
2022-08-12T22:50:59.240Z,20.78
2022-08-12T22:53:35.859Z,21.01
2022-08-12T22:56:08.013Z,20.63
2022-08-12T22:58:40.800Z,20.87
2022-08-12T23:01:13.687Z,20.63
2022-08-12T23:03:51.110Z,20.78
2022-08-12T23:06:25.219Z,20.67
2022-08-12T23:08:56.287Z,20.44
2022-08-12T23:11:25.584Z,20.30
2022-08-12T23:14:04.316Z,20.13
2022-08-12T23:16:34.161Z,19.34
2022-08-12T23:19:09.592Z,20.12
2022-08-12T23:22:04.278Z,20.15
2022-08-12T23:24:26.794Z,20.22
2022-08-12T23:27:44.390Z,20.30
2022-08-12T23:30:19.121Z,20.40
2022-08-12T23:33:00.119Z,20.37
2022-08-12T23:35:45.686Z,19.57
2022-08-12T23:38:30.704Z,20.20
2022-08-12T23:41:01.275Z,20.32
2022-08-12T23:43:39.112Z,20.37
2022-08-12T23:46:10.572Z,20.54
2022-08-12T23:48:40.006Z,20.53
2022-08-12T23:51:23.333Z,20.57
2022-08-12T23:53:55.291Z,20.56
2022-08-12T23:56:25.227Z,20.48
2022-08-12T23:58:57.517Z,20.55
